Time;durP1;ratioP1;P1;durP2;ratioP2;P2;SDS_P1;SDS_P2;PMS_P1;PMS_P2;Temp;Humidity;BMP_temperature;BMP_pressure;BME280_temperature;BME280_humidity;BME280_pressure;Samples;Min_cycle;Max_cycle;Signal;HPM_P1;HPM_P2
2022/07/27 00:00:35;;;;;;;14.75;4.78;;;26.00;99.90;;;;;;6180076;23;20013;-75
2022/07/27 00:03:01;;;;;;;14.93;5.03;;;26.00;99.90;;;;;;6181369;23;20446;-76
2022/07/27 00:05:27;;;;;;;15.30;5.05;;;26.00;99.90;;;;;;6150935;23;20125;-75
2022/07/27 00:07:53;;;;;;;20.70;4.53;;;26.00;99.90;;;;;;6177221;23;20353;-75
2022/07/27 00:10:20;;;;;;;19.33;5.15;;;26.10;99.90;;;;;;6178738;23;20021;-75
2022/07/27 00:12:47;;;;;;;14.43;5.32;;;26.10;99.90;;;;;;6179871;23;20037;-75
2022/07/27 00:15:13;;;;;;;13.02;5.05;;;26.00;99.90;;;;;;6152063;23;20013;-77
2022/07/27 00:17:41;;;;;;;16.98;4.95;;;26.00;99.90;;;;;;6180770;23;20023;-74
2022/07/27 00:20:07;;;;;;;13.52;5.13;;;26.10;99.90;;;;;;6178530;23;20457;-74
2022/07/27 00:22:33;;;;;;;15.13;4.78;;;26.00;99.90;;;;;;6153678;23;20020;-75
2022/07/27 00:24:59;;;;;;;12.38;5.28;;;26.00;99.90;;;;;;6179431;23;20009;-75
2022/07/27 00:27:24;;;;;;;14.65;5.38;;;25.90;99.90;;;;;;6152342;23;20072;-75
2022/07/27 00:29:50;;;;;;;14.23;5.00;;;25.90;99.90;;;;;;6181969;23;20017;-75
2022/07/27 00:32:16;;;;;;;14.27;4.85;;;25.80;99.90;;;;;;6153907;23;20376;-76
2022/07/27 00:34:41;;;;;;;17.02;5.32;;;25.90;99.90;;;;;;6155531;23;20575;-75
2022/07/27 00:37:08;;;;;;;18.88;5.85;;;25.90;99.90;;;;;;6153142;23;20037;-76
2022/07/27 00:39:34;;;;;;;16.67;5.07;;;26.00;99.90;;;;;;6181709;23;20005;-75
2022/07/27 00:42:00;;;;;;;17.30;5.30;;;25.90;99.90;;;;;;6154449;23;20015;-75
2022/07/27 00:44:27;;;;;;;12.27;5.15;;;26.00;99.90;;;;;;6139616;23;20088;-75
2022/07/27 00:46:53;;;;;;;13.88;5.28;;;26.00;99.90;;;;;;6153974;23;20088;-74
2022/07/27 00:49:20;;;;;;;13.40;4.97;;;25.80;99.90;;;;;;6153909;23;20526;-75
2022/07/27 00:51:47;;;;;;;14.63;4.72;;;25.90;99.90;;;;;;6155710;23;20131;-74
2022/07/27 00:54:13;;;;;;;17.25;5.18;;;25.90;99.90;;;;;;6179536;23;20586;-74
2022/07/27 00:56:40;;;;;;;14.50;5.18;;;25.90;99.90;;;;;;6181742;23;20338;-74
2022/07/27 00:59:09;;;;;;;13.25;5.00;;;25.90;99.90;;;;;;6180020;23;20047;-74
2022/07/27 01:01:36;;;;;;;15.27;4.88;;;26.00;99.90;;;;;;6183230;23;20449;-74
2022/07/27 01:04:02;;;;;;;16.95;5.30;;;25.90;99.90;;;;;;6154910;23;20032;-74
2022/07/27 01:06:28;;;;;;;16.70;4.90;;;25.90;99.90;;;;;;6185623;23;20044;-75
2022/07/27 01:09:55;;;;;;;15.45;4.80;;;25.90;99.90;;;;;;6185668;23;20016;-75
2022/07/27 01:11:43;;;;;;;17.58;5.13;;;26.00;99.90;;;;;;6181560;23;20088;-75
2022/07/27 01:14:12;;;;;;;12.55;4.85;;;26.00;99.90;;;;;;6181344;23;20005;-74
2022/07/27 01:16:39;;;;;;;14.50;5.20;;;26.00;99.90;;;;;;6156213;23;20013;-74
2022/07/27 01:19:09;;;;;;;14.50;4.90;;;26.00;99.90;;;;;;6182427;23;20013;-73
2022/07/27 01:21:35;;;;;;;14.00;5.15;;;26.00;99.90;;;;;;6156793;23;20009;-75
2022/07/27 01:24:02;;;;;;;15.98;4.85;;;26.00;99.90;;;;;;6156856;23;20009;-74
2022/07/27 01:26:28;;;;;;;18.30;5.25;;;26.00;99.90;;;;;;6182076;23;20512;-75
2022/07/27 01:28:59;;;;;;;12.13;5.22;;;25.90;99.90;;;;;;6183891;23;20015;-75
2022/07/27 01:31:26;;;;;;;13.38;4.75;;;25.80;99.90;;;;;;6133088;23;20437;-77
2022/07/27 01:33:52;;;;;;;13.25;4.80;;;25.80;99.90;;;;;;6182978;23;20435;-75
2022/07/27 01:36:18;;;;;;;12.52;5.05;;;25.70;99.90;;;;;;6156282;23;20822;-75
2022/07/27 01:38:45;;;;;;;12.85;4.95;;;25.80;99.90;;;;;;6183047;23;20041;-76
2022/07/27 01:41:11;;;;;;;13.93;4.65;;;25.70;99.90;;;;;;6135370;23;20016;-75
2022/07/27 01:43:38;;;;;;;14.07;4.40;;;25.70;99.90;;;;;;6157953;23;20437;-75
2022/07/27 01:46:05;;;;;;;17.35;5.25;;;25.70;99.90;;;;;;6156305;23;20020;-74
2022/07/27 01:48:32;;;;;;;17.83;5.47;;;25.80;99.90;;;;;;6182778;23;20012;-75
2022/07/27 01:50:59;;;;;;;18.88;6.72;;;25.80;99.90;;;;;;6183959;23;20787;-75
2022/07/27 01:53:25;;;;;;;13.20;4.88;;;25.80;99.90;;;;;;6160170;23;20017;-74
2022/07/27 01:55:51;;;;;;;16.58;5.60;;;25.80;99.90;;;;;;6155299;23;20040;-74
2022/07/27 01:58:18;;;;;;;14.05;4.80;;;25.80;99.90;;;;;;6181156;23;20496;-75
2022/07/27 02:00:47;;;;;;;15.88;5.63;;;25.80;99.90;;;;;;6160138;23;20008;-74
2022/07/27 02:03:13;;;;;;;13.80;4.97;;;25.80;99.90;;;;;;6183710;23;20468;-75
2022/07/27 02:05:39;;;;;;;13.00;4.50;;;25.90;99.90;;;;;;6149612;23;20092;-75
2022/07/27 02:08:10;;;;;;;13.98;4.90;;;25.90;99.90;;;;;;6172505;23;20039;-73
2022/07/27 02:12:34;;;;;;;13.73;4.75;;;25.90;99.90;;;;;;6160676;23;20036;-74
2022/07/27 02:13:23;;;;;;;14.38;4.82;;;25.90;99.90;;;;;;6184440;23;20017;-75
2022/07/27 02:15:51;;;;;;;15.05;5.47;;;25.90;99.90;;;;;;6159824;23;20349;-73
2022/07/27 02:18:17;;;;;;;21.25;5.38;;;25.90;99.90;;;;;;6144974;23;20021;-74
2022/07/27 02:20:43;;;;;;;19.58;5.32;;;25.90;99.90;;;;;;6158158;23;20012;-73
2022/07/27 02:23:09;;;;;;;18.60;5.70;;;25.90;99.90;;;;;;6157053;23;20333;-73
2022/07/27 02:25:36;;;;;;;14.63;5.55;;;25.90;99.90;;;;;;6159225;23;20040;-74
2022/07/27 02:28:03;;;;;;;15.15;5.15;;;25.90;99.90;;;;;;6159065;23;20017;-73
2022/07/27 02:30:28;;;;;;;17.15;5.25;;;25.80;99.90;;;;;;6195904;23;20013;-73
2022/07/27 02:32:54;;;;;;;13.18;4.95;;;25.80;99.90;;;;;;6184449;23;20085;-75
2022/07/27 02:35:20;;;;;;;13.07;4.63;;;25.80;99.90;;;;;;6156510;23;20013;-74
2022/07/27 02:37:47;;;;;;;15.60;5.00;;;25.70;99.90;;;;;;6183179;23;20697;-73
2022/07/27 02:40:15;;;;;;;17.35;5.28;;;25.70;99.90;;;;;;6181110;23;20017;-74
2022/07/27 02:42:42;;;;;;;17.73;5.32;;;25.70;99.90;;;;;;6182968;23;20013;-74
2022/07/27 02:45:08;;;;;;;19.40;6.15;;;25.70;99.90;;;;;;6179356;23;20385;-74
2022/07/27 02:47:34;;;;;;;14.25;4.78;;;25.70;99.90;;;;;;6154911;23;20025;-74
2022/07/27 02:50:01;;;;;;;14.80;4.78;;;25.70;99.90;;;;;;6155199;23;20273;-74
2022/07/27 02:52:28;;;;;;;14.38;4.78;;;25.60;99.90;;;;;;6183033;23;20091;-74
2022/07/27 02:54:54;;;;;;;14.35;4.88;;;25.60;99.90;;;;;;6182027;23;20032;-74
2022/07/27 02:57:20;;;;;;;14.00;5.20;;;25.60;99.90;;;;;;6181144;23;20012;-74
2022/07/27 02:59:46;;;;;;;17.35;5.70;;;25.60;99.90;;;;;;6156866;23;20009;-73
2022/07/27 03:02:12;;;;;;;14.90;5.30;;;25.60;99.90;;;;;;6153719;23;20013;-74
2022/07/27 03:04:38;;;;;;;10.63;4.75;;;25.60;99.90;;;;;;6155865;23;20043;-75
2022/07/27 03:07:03;;;;;;;14.38;4.95;;;25.60;99.90;;;;;;6153962;23;20020;-73
2022/07/27 03:09:29;;;;;;;13.93;4.90;;;25.60;99.90;;;;;;6181991;23;20513;-73
2022/07/27 03:11:55;;;;;;;14.35;5.40;;;25.60;99.90;;;;;;6160402;23;20598;-74
2022/07/27 03:14:21;;;;;;;17.17;5.22;;;25.60;99.90;;;;;;6181823;23;20027;-75
2022/07/27 03:16:48;;;;;;;16.40;5.05;;;25.60;99.90;;;;;;6161517;23;20299;-76
2022/07/27 03:19:14;;;;;;;13.43;4.97;;;25.60;99.90;;;;;;6182965;23;20017;-73
2022/07/27 03:21:40;;;;;;;11.73;5.03;;;25.60;99.90;;;;;;6155628;23;20341;-74
2022/07/27 03:24:06;;;;;;;14.23;5.20;;;25.60;99.90;;;;;;6180017;23;20017;-74
2022/07/27 03:26:32;;;;;;;15.13;5.35;;;25.60;99.90;;;;;;6154404;23;20501;-74
2022/07/27 03:28:58;;;;;;;11.77;5.38;;;25.60;99.90;;;;;;6155073;23;20026;-74
2022/07/27 03:31:24;;;;;;;10.15;4.85;;;25.60;99.90;;;;;;6153122;23;20012;-74
2022/07/27 03:33:50;;;;;;;13.07;4.78;;;25.50;99.90;;;;;;6180990;23;20009;-74
2022/07/27 03:36:17;;;;;;;12.82;5.22;;;25.50;99.90;;;;;;6153024;23;20017;-74
2022/07/27 03:38:43;;;;;;;16.15;5.00;;;25.50;99.90;;;;;;6167948;23;19997;-74
2022/07/27 03:41:09;;;;;;;14.63;5.00;;;25.50;99.90;;;;;;6154408;23;20606;-74
2022/07/27 03:43:35;;;;;;;16.75;5.18;;;25.50;99.90;;;;;;6155374;23;20446;-74
2022/07/27 03:46:01;;;;;;;12.98;4.70;;;25.50;99.90;;;;;;6155807;23;20005;-75
2022/07/27 03:48:28;;;;;;;14.25;5.32;;;25.50;99.90;;;;;;6180780;23;20021;-74
2022/07/27 03:50:54;;;;;;;13.60;5.50;;;25.50;99.90;;;;;;6166242;23;20392;-74
2022/07/27 03:53:20;;;;;;;16.50;5.63;;;25.40;99.90;;;;;;6180967;23;20013;-74
2022/07/27 03:55:49;;;;;;;16.67;6.22;;;25.40;99.90;;;;;;6182082;23;20013;-74
2022/07/27 03:58:15;;;;;;;17.90;5.93;;;25.40;99.90;;;;;;6154909;23;20524;-74
2022/07/27 04:00:42;;;;;;;15.88;5.60;;;25.40;99.90;;;;;;6156873;23;20028;-74
2022/07/27 04:03:08;;;;;;;16.70;5.47;;;25.40;99.90;;;;;;6155905;23;20412;-73
2022/07/27 04:05:34;;;;;;;18.13;5.45;;;25.30;99.90;;;;;;6156944;23;20020;-74
2022/07/27 04:07:59;;;;;;;14.80;6.13;;;25.20;99.90;;;;;;6183826;23;20092;-75
2022/07/27 04:10:25;;;;;;;14.35;5.78;;;25.10;99.90;;;;;;6182954;23;20024;-73
2022/07/27 04:12:51;;;;;;;15.60;5.68;;;25.00;99.90;;;;;;6157328;23;20012;-73
2022/07/27 04:15:17;;;;;;;14.48;5.72;;;25.00;99.90;;;;;;6142358;23;20083;-74
2022/07/27 04:17:44;;;;;;;18.83;6.10;;;25.00;99.90;;;;;;6157897;23;20009;-74
2022/07/27 04:20:10;;;;;;;17.35;6.00;;;25.10;99.90;;;;;;6182133;23;20025;-74
2022/07/27 04:22:36;;;;;;;15.80;6.10;;;25.10;99.90;;;;;;6184843;23;20017;-73
2022/07/27 04:25:02;;;;;;;17.83;5.95;;;25.20;99.90;;;;;;6157030;23;20117;-74
2022/07/27 04:27:28;;;;;;;16.45;5.72;;;25.10;99.90;;;;;;6157165;23;20093;-73
2022/07/27 04:29:54;;;;;;;17.98;6.20;;;25.20;99.90;;;;;;6157732;23;20037;-74
2022/07/27 04:32:20;;;;;;;16.65;6.40;;;25.20;99.90;;;;;;6155741;23;20017;-75
2022/07/27 04:34:46;;;;;;;18.50;5.53;;;25.10;99.90;;;;;;6182867;23;20019;-73
2022/07/27 04:37:11;;;;;;;12.85;5.10;;;25.10;99.90;;;;;;6181235;23;20583;-76
2022/07/27 04:39:37;;;;;;;13.35;4.43;;;25.10;99.90;;;;;;6155401;23;20435;-73
2022/07/27 04:42:03;;;;;;;12.98;5.03;;;25.00;99.90;;;;;;6156051;23;20009;-73
2022/07/27 04:44:29;;;;;;;12.63;4.93;;;25.10;99.90;;;;;;6156023;23;20013;-74
2022/07/27 04:46:55;;;;;;;10.90;4.85;;;25.10;99.90;;;;;;6156340;23;20441;-73
2022/07/27 04:49:22;;;;;;;12.48;4.80;;;25.10;99.90;;;;;;6181289;23;20341;-74
2022/07/27 04:51:48;;;;;;;11.98;4.85;;;25.10;99.90;;;;;;6156603;23;20023;-74
2022/07/27 04:54:14;;;;;;;11.60;5.05;;;25.10;99.90;;;;;;6155619;23;20120;-74
2022/07/27 04:56:39;;;;;;;9.77;4.80;;;25.00;99.90;;;;;;6155986;23;20006;-74
2022/07/27 04:59:05;;;;;;;13.00;5.22;;;25.00;99.90;;;;;;6180823;23;20538;-74
2022/07/27 05:01:31;;;;;;;8.80;4.65;;;24.90;99.90;;;;;;6161275;23;20384;-74
2022/07/27 05:03:56;;;;;;;11.85;5.10;;;25.00;99.90;;;;;;6156397;23;20381;-73
2022/07/27 05:06:22;;;;;;;12.88;5.47;;;25.00;99.90;;;;;;6181012;23;20017;-74
2022/07/27 05:08:48;;;;;;;12.45;4.55;;;25.00;99.90;;;;;;6156089;23;20079;-73
2022/07/27 05:11:14;;;;;;;9.13;4.55;;;25.00;99.90;;;;;;6131944;23;20381;-73
2022/07/27 05:13:40;;;;;;;15.60;4.47;;;24.90;99.90;;;;;;6181344;23;20081;-74
2022/07/27 05:16:09;;;;;;;10.65;4.32;;;24.90;99.90;;;;;;6154200;23;20541;-74
2022/07/27 05:18:39;;;;;;;11.05;3.60;;;24.90;99.90;;;;;;6155287;23;20005;-73
2022/07/27 05:21:06;;;;;;;9.25;4.00;;;24.90;99.90;;;;;;6180536;23;20005;-74
2022/07/27 05:23:32;;;;;;;8.63;3.92;;;24.90;99.90;;;;;;6156034;23;20059;-74
2022/07/27 05:25:59;;;;;;;11.82;4.15;;;25.00;99.90;;;;;;6133196;23;20084;-74
2022/07/27 05:28:25;;;;;;;20.90;5.05;;;24.90;99.90;;;;;;6181034;23;20021;-74
2022/07/27 05:30:51;;;;;;;17.73;4.80;;;24.90;99.90;;;;;;6183730;23;20024;-73
2022/07/27 05:33:17;;;;;;;20.13;5.25;;;24.90;99.90;;;;;;6182142;23;20017;-74
2022/07/27 05:35:43;;;;;;;18.42;5.13;;;24.90;99.90;;;;;;6181920;23;20080;-73
2022/07/27 05:38:08;;;;;;;16.38;5.05;;;24.80;99.90;;;;;;6154883;23;20344;-75
2022/07/27 05:40:34;;;;;;;19.02;5.43;;;24.80;99.90;;;;;;6166315;23;20013;-74
2022/07/27 05:43:00;;;;;;;20.73;5.60;;;24.80;99.90;;;;;;6182532;23;20072;-74
2022/07/27 05:45:26;;;;;;;15.77;5.28;;;24.70;99.90;;;;;;6154177;23;20040;-74
2022/07/27 05:47:53;;;;;;;15.90;4.28;;;24.70;99.90;;;;;;6181101;23;20405;-73
2022/07/27 05:50:19;;;;;;;19.00;4.75;;;24.70;99.90;;;;;;6179374;23;20016;-74
2022/07/27 05:52:45;;;;;;;17.08;4.45;;;24.70;99.90;;;;;;6154366;23;20013;-74
2022/07/27 05:55:11;;;;;;;16.20;4.85;;;24.70;99.90;;;;;;6180876;23;20040;-74
2022/07/27 05:57:39;;;;;;;22.80;5.65;;;24.60;99.90;;;;;;6157200;23;20029;-74
2022/07/27 06:00:07;;;;;;;21.85;5.13;;;24.60;99.90;;;;;;6184450;23;20395;-74
2022/07/27 06:02:33;;;;;;;21.63;5.03;;;24.60;99.90;;;;;;6159130;23;20024;-74
2022/07/27 06:04:59;;;;;;;19.55;5.20;;;24.50;99.90;;;;;;6156523;23;20017;-74
2022/07/27 06:10:10;;;;;;;18.73;4.60;;;24.50;99.90;;;;;;6185322;23;20043;-75
2022/07/27 06:12:41;;;;;;;13.43;3.90;;;24.50;99.90;;;;;;6132536;23;20001;-74
2022/07/27 06:15:08;;;;;;;14.27;4.13;;;24.60;99.90;;;;;;6156227;23;20302;-74
2022/07/27 06:17:35;;;;;;;13.30;4.47;;;24.60;99.90;;;;;;6158131;23;20005;-74
2022/07/27 06:20:03;;;;;;;15.15;3.80;;;24.60;99.90;;;;;;6156196;23;20541;-74
2022/07/27 06:22:30;;;;;;;20.33;5.40;;;24.80;99.90;;;;;;6134861;23;20009;-75
2022/07/27 06:24:56;;;;;;;14.35;4.18;;;24.90;99.90;;;;;;6187878;23;20414;-74
2022/07/27 06:27:22;;;;;;;15.15;4.07;;;24.90;99.90;;;;;;6180188;22;20033;-74
2022/07/27 06:29:48;;;;;;;12.80;3.67;;;25.10;99.90;;;;;;6204613;23;20017;-74
2022/07/27 06:32:13;;;;;;;12.98;4.47;;;25.20;99.90;;;;;;6179073;22;20460;-75
2022/07/27 06:34:39;;;;;;;14.70;4.07;;;25.20;99.90;;;;;;6179617;23;20017;-74
2022/07/27 06:37:05;;;;;;;13.23;4.00;;;25.30;99.90;;;;;;6153294;23;20429;-73
2022/07/27 06:39:31;;;;;;;13.73;4.15;;;25.30;99.90;;;;;;6154892;23;20009;-74
2022/07/27 06:41:56;;;;;;;9.82;3.58;;;25.30;99.90;;;;;;6205176;23;20009;-74
2022/07/27 06:44:22;;;;;;;10.57;3.75;;;25.20;99.90;;;;;;6181490;23;20017;-74
2022/07/27 06:46:48;;;;;;;10.60;4.07;;;25.10;99.90;;;;;;6155100;23;20032;-73
2022/07/27 06:49:14;;;;;;;9.60;3.72;;;25.00;99.90;;;;;;6155475;23;20019;-74
2022/07/27 06:51:39;;;;;;;12.07;3.85;;;25.10;99.90;;;;;;6182092;22;20065;-74
2022/07/27 06:54:07;;;;;;;12.07;4.00;;;25.20;99.90;;;;;;6180297;23;20025;-74
2022/07/27 06:56:32;;;;;;;17.05;4.40;;;25.30;99.90;;;;;;6181997;23;20005;-75
2022/07/27 06:58:58;;;;;;;14.35;4.35;;;25.40;99.90;;;;;;6154893;23;20039;-75
2022/07/27 07:01:24;;;;;;;15.80;4.60;;;25.50;99.90;;;;;;6181907;22;20091;-74
2022/07/27 07:03:50;;;;;;;14.82;4.40;;;25.60;99.90;;;;;;6157019;23;20017;-74
2022/07/27 07:06:16;;;;;;;15.90;4.88;;;25.60;99.90;;;;;;6155542;23;20009;-74
2022/07/27 07:08:42;;;;;;;12.88;4.68;;;25.70;99.90;;;;;;6181778;23;20017;-74
2022/07/27 07:11:10;;;;;;;16.90;5.03;;;25.60;99.90;;;;;;6181108;22;20229;-74
2022/07/27 07:13:36;;;;;;;12.25;3.90;;;25.60;99.90;;;;;;6155179;23;20004;-73
2022/07/27 07:16:02;;;;;;;16.83;4.50;;;25.70;99.90;;;;;;6181116;23;20044;-74
2022/07/27 07:18:28;;;;;;;14.73;4.13;;;25.70;99.90;;;;;;6156170;23;20067;-74
2022/07/27 07:20:54;;;;;;;17.48;4.43;;;25.60;99.90;;;;;;6182099;22;20013;-74
2022/07/27 07:23:19;;;;;;;18.60;4.97;;;25.60;99.90;;;;;;6182680;23;20618;-74
2022/07/27 07:25:46;;;;;;;10.60;4.07;;;25.70;99.90;;;;;;6182883;23;20029;-74
2022/07/27 07:28:11;;;;;;;10.43;4.45;;;25.90;99.90;;;;;;6152659;23;20088;-73
2022/07/27 07:30:37;;;;;;;12.55;3.72;;;25.90;99.90;;;;;;6155011;23;20009;-74
2022/07/27 07:33:03;;;;;;;11.88;4.30;;;26.00;99.90;;;;;;6155335;23;20016;-73
2022/07/27 07:35:29;;;;;;;15.32;3.80;;;26.00;99.90;;;;;;6181581;23;20432;-73
2022/07/27 07:37:55;;;;;;;13.75;4.32;;;26.00;99.90;;;;;;6184123;23;20581;-74
2022/07/27 07:40:21;;;;;;;11.80;3.95;;;26.10;99.90;;;;;;6185293;22;20087;-73
2022/07/27 07:42:59;;;;;;;12.27;3.95;;;26.30;99.90;;;;;;6167166;23;20354;-74
2022/07/27 07:45:26;;;;;;;14.18;4.60;;;26.50;99.90;;;;;;6158226;22;20514;-73
2022/07/27 07:47:55;;;;;;;19.75;4.50;;;26.60;99.90;;;;;;6183986;23;20020;-74
2022/07/27 07:50:21;;;;;;;17.75;4.18;;;27.00;99.90;;;;;;6184424;22;20021;-73
2022/07/27 07:52:49;;;;;;;13.40;3.80;;;27.10;99.90;;;;;;6157897;23;20203;-74
2022/07/27 07:55:17;;;;;;;13.30;3.70;;;27.10;99.90;;;;;;6155531;22;20025;-75
2022/07/27 07:57:43;;;;;;;9.45;3.22;;;27.30;99.90;;;;;;6205510;23;20084;-75
2022/07/27 08:00:10;;;;;;;14.90;3.90;;;27.40;99.90;;;;;;6154858;22;20499;-76
2022/07/27 08:02:51;;;;;;;14.73;3.92;;;27.20;99.90;;;;;;6155266;23;20047;-75
2022/07/27 08:05:18;;;;;;;11.82;3.97;;;27.30;99.90;;;;;;6155070;22;20025;-74
2022/07/27 08:07:44;;;;;;;11.93;3.20;;;27.40;99.90;;;;;;6155606;23;20017;-75
2022/07/27 08:10:13;;;;;;;11.90;3.70;;;27.50;99.90;;;;;;6154653;22;20039;-75
2022/07/27 08:12:42;;;;;;;11.73;4.20;;;27.60;99.90;;;;;;6156251;23;20013;-75
2022/07/27 08:15:09;;;;;;;10.68;3.83;;;27.50;99.90;;;;;;6180962;22;20100;-75
2022/07/27 08:17:34;;;;;;;12.48;3.60;;;27.60;99.90;;;;;;6182109;23;20055;-76
2022/07/27 08:20:00;;;;;;;13.15;3.70;;;27.70;99.90;;;;;;6154829;23;20448;-74
2022/07/27 08:22:27;;;;;;;11.23;3.30;;;27.60;99.90;;;;;;6154491;23;20013;-74
2022/07/27 08:24:52;;;;;;;11.88;3.28;;;27.70;99.90;;;;;;6182512;23;20009;-75
2022/07/27 08:27:18;;;;;;;11.30;3.00;;;27.80;99.90;;;;;;6154831;23;20410;-75
2022/07/27 08:29:44;;;;;;;8.73;2.75;;;28.00;99.90;;;;;;6181678;23;20504;-75
2022/07/27 08:32:10;;;;;;;11.13;3.08;;;28.30;99.90;;;;;;6180891;22;20024;-75
2022/07/27 08:34:35;;;;;;;8.48;2.72;;;28.70;99.90;;;;;;6155045;23;20032;-76
2022/07/27 08:37:01;;;;;;;10.13;2.70;;;28.60;99.90;;;;;;6182344;23;20009;-75
2022/07/27 08:39:27;;;;;;;8.13;2.40;;;28.40;99.90;;;;;;6154029;23;20089;-75
2022/07/27 08:41:54;;;;;;;8.15;2.72;;;28.80;99.90;;;;;;6181314;22;20040;-75
2022/07/27 08:44:24;;;;;;;8.85;2.58;;;28.90;99.90;;;;;;6153806;23;20020;-75
2022/07/27 08:46:50;;;;;;;6.60;2.90;;;28.80;99.90;;;;;;6155428;23;20356;-75
2022/07/27 08:49:17;;;;;;;12.18;2.78;;;28.80;99.90;;;;;;6180303;23;20017;-75
2022/07/27 08:51:43;;;;;;;9.43;2.67;;;28.30;99.90;;;;;;6181555;22;20010;-74
2022/07/27 08:54:09;;;;;;;9.30;2.60;;;27.80;99.90;;;;;;6179704;23;20013;-75
2022/07/27 08:56:36;;;;;;;7.82;2.38;;;27.70;99.90;;;;;;6179885;23;20718;-74
2022/07/27 08:59:03;;;;;;;9.65;2.55;;;27.70;99.90;;;;;;6182318;23;20009;-75
2022/07/27 09:01:34;;;;;;;8.38;2.47;;;27.60;99.90;;;;;;6204504;22;20386;-74
2022/07/27 09:04:00;;;;;;;8.02;2.65;;;27.60;99.90;;;;;;6155156;23;20038;-75
2022/07/27 09:06:44;;;;;;;9.27;2.70;;;27.40;99.90;;;;;;6180614;22;20019;-74
2022/07/27 09:09:11;;;;;;;8.65;2.50;;;27.20;99.90;;;;;;6181582;23;20025;-75
2022/07/27 09:11:38;;;;;;;7.80;2.00;;;27.40;99.90;;;;;;6155859;23;20009;-76
2022/07/27 09:14:06;;;;;;;8.05;2.63;;;27.60;99.90;;;;;;6179897;23;20009;-75
2022/07/27 09:16:33;;;;;;;8.43;2.60;;;27.30;99.90;;;;;;6181643;23;20005;-74
2022/07/27 09:19:00;;;;;;;7.40;2.50;;;27.50;99.90;;;;;;6154142;23;20013;-75
2022/07/27 09:21:27;;;;;;;10.07;2.75;;;27.60;99.90;;;;;;6153193;23;20054;-75
2022/07/27 09:24:08;;;;;;;9.77;2.33;;;27.70;99.90;;;;;;6180858;23;20013;-74
2022/07/27 09:26:35;;;;;;;9.10;2.25;;;27.90;99.90;;;;;;6162421;23;20044;-75
2022/07/27 09:29:05;;;;;;;17.08;4.88;;;28.00;99.90;;;;;;6154301;23;20456;-74
2022/07/27 09:31:32;;;;;;;9.30;2.80;;;28.00;99.90;;;;;;6180207;23;20009;-75
2022/07/27 09:34:00;;;;;;;10.90;2.70;;;27.50;99.90;;;;;;6130176;23;20007;-75
2022/07/27 09:36:28;;;;;;;9.25;2.53;;;27.80;99.90;;;;;;6180365;23;20020;-75
2022/07/27 09:39:04;;;;;;;8.52;2.53;;;27.60;99.90;;;;;;6155283;23;20009;-75
2022/07/27 09:41:41;;;;;;;13.60;3.13;;;27.80;99.90;;;;;;6142109;23;20005;-75
2022/07/27 09:44:07;;;;;;;10.82;3.05;;;27.10;99.90;;;;;;6166126;23;20080;-76
2022/07/27 09:46:38;;;;;;;9.57;2.47;;;27.20;99.90;;;;;;6180575;23;20037;-74
2022/07/27 09:49:05;;;;;;;10.82;2.50;;;27.40;99.90;;;;;;6153415;23;20028;-74
2022/07/27 09:51:32;;;;;;;6.95;2.60;;;27.60;99.90;;;;;;6180936;23;20008;-75
2022/07/27 09:54:06;;;;;;;6.55;2.78;;;27.50;99.90;;;;;;6181827;23;20037;-75
2022/07/27 09:56:32;;;;;;;11.02;3.30;;;27.50;99.90;;;;;;6142462;23;20013;-75
2022/07/27 09:59:00;;;;;;;10.82;2.85;;;27.30;99.90;;;;;;6154309;23;20016;-75
2022/07/27 10:01:36;;;;;;;10.63;3.35;;;27.40;99.90;;;;;;6153249;23;20415;-76
2022/07/27 10:04:07;;;;;;;12.30;2.72;;;27.50;99.90;;;;;;6181126;23;20071;-75
2022/07/27 10:06:33;;;;;;;12.98;2.60;;;27.40;99.90;;;;;;6153638;23;20013;-76
2022/07/27 10:09:01;;;;;;;8.82;2.80;;;27.60;99.90;;;;;;6154413;23;20462;-75
2022/07/27 10:11:29;;;;;;;11.43;2.70;;;27.60;99.90;;;;;;6179860;23;20016;-74
2022/07/27 10:13:56;;;;;;;12.40;2.67;;;27.60;99.90;;;;;;6180586;23;20017;-75
2022/07/27 10:16:25;;;;;;;11.88;3.08;;;27.80;99.90;;;;;;6180343;23;20024;-76
2022/07/27 10:19:04;;;;;;;9.18;2.63;;;28.10;99.90;;;;;;6129760;23;20088;-75
2022/07/27 10:21:37;;;;;;;7.57;2.70;;;28.00;99.90;;;;;;6154225;23;20366;-75
2022/07/27 10:24:24;;;;;;;9.10;2.90;;;28.40;99.90;;;;;;6153586;23;20133;-75
2022/07/27 10:26:50;;;;;;;9.02;3.03;;;28.90;99.90;;;;;;6154945;23;20005;-74
2022/07/27 10:29:19;;;;;;;8.68;2.60;;;29.30;99.90;;;;;;6152910;23;20020;-73
2022/07/27 10:31:54;;;;;;;9.55;3.08;;;29.00;99.90;;;;;;6181648;23;20009;-75
2022/07/27 10:34:42;;;;;;;8.75;2.70;;;27.90;99.90;;;;;;6179920;23;20101;-76
2022/07/27 10:37:22;;;;;;;13.82;2.95;;;27.70;99.90;;;;;;6152792;23;20016;-74
2022/07/27 10:42:44;;;;;;;13.20;2.90;;;27.00;99.90;;;;;;6178293;23;20031;-74
2022/07/27 10:45:14;;;;;;;12.88;3.20;;;26.80;99.90;;;;;;6152328;23;20123;-75
2022/07/27 10:47:49;;;;;;;16.75;3.25;;;26.10;99.90;;;;;;6154120;23;20017;-75
2022/07/27 10:50:15;;;;;;;9.90;3.35;;;26.40;99.90;;;;;;6178696;23;20176;-75
2022/07/27 10:52:59;;;;;;;11.23;3.50;;;26.10;99.90;;;;;;6180341;23;20009;-75
2022/07/27 10:55:32;;;;;;;15.43;3.17;;;26.30;99.90;;;;;;6152362;23;20052;-74
2022/07/27 10:58:19;;;;;;;11.63;3.80;;;26.30;99.90;;;;;;6153155;23;20055;-75
2022/07/27 11:00:48;;;;;;;11.13;3.40;;;26.40;99.90;;;;;;6153561;23;20340;-75
2022/07/27 11:03:25;;;;;;;11.52;3.17;;;26.20;99.90;;;;;;6137610;23;20029;-75
2022/07/27 11:05:55;;;;;;;11.02;3.38;;;26.10;99.90;;;;;;6179292;23;20017;-75
2022/07/27 11:08:30;;;;;;;12.10;3.35;;;26.20;99.90;;;;;;6152057;23;20013;-75
2022/07/27 11:10:57;;;;;;;11.93;3.08;;;25.90;99.90;;;;;;6179879;23;20067;-75
2022/07/27 11:13:24;;;;;;;13.63;3.65;;;25.90;99.90;;;;;;6178767;23;20024;-75
2022/07/27 11:15:59;;;;;;;16.80;3.25;;;25.80;99.90;;;;;;6153491;23;20036;-75
2022/07/27 11:18:31;;;;;;;10.85;3.00;;;25.80;99.90;;;;;;6181529;23;20017;-76
2022/07/27 11:21:36;;;;;;;10.05;3.38;;;25.80;99.90;;;;;;6209479;22;20626;-74
2022/07/27 11:24:16;;;;;;;13.32;3.53;;;25.50;99.90;;;;;;6073687;23;20010;-74
2022/07/27 11:26:47;;;;;;;14.90;3.20;;;25.70;99.90;;;;;;6088403;23;20022;-76
2022/07/27 11:29:14;;;;;;;10.93;3.45;;;25.80;99.90;;;;;;6146939;23;20019;-75
2022/07/27 11:31:45;;;;;;;16.80;3.90;;;26.00;99.90;;;;;;6209628;22;20437;-76
2022/07/27 11:34:12;;;;;;;15.05;3.38;;;26.20;99.90;;;;;;6207140;23;20012;-76
2022/07/27 11:36:52;;;;;;;12.43;3.47;;;26.00;99.90;;;;;;6210496;22;20009;-75
2022/07/27 11:39:25;;;;;;;11.73;3.45;;;26.00;99.90;;;;;;6157885;23;20229;-75
2022/07/27 11:41:57;;;;;;;10.35;3.45;;;25.90;99.90;;;;;;6183339;23;20466;-75
2022/07/27 11:44:23;;;;;;;16.67;3.35;;;25.80;99.90;;;;;;6168224;23;20009;-75
2022/07/27 11:46:51;;;;;;;14.73;3.88;;;25.60;99.90;;;;;;6172970;22;20036;-75
2022/07/27 11:49:29;;;;;;;11.25;3.70;;;25.80;99.90;;;;;;6192359;23;20017;-75
2022/07/27 11:52:02;;;;;;;10.63;2.97;;;25.80;99.90;;;;;;6150321;23;20390;-75
2022/07/27 11:54:32;;;;;;;11.68;3.60;;;25.80;99.90;;;;;;6179855;23;20009;-75
2022/07/27 11:57:02;;;;;;;10.95;2.95;;;25.90;99.90;;;;;;6179976;23;20009;-75
2022/07/27 11:59:30;;;;;;;11.93;3.00;;;25.80;99.90;;;;;;6155680;23;20009;-76
2022/07/27 12:01:58;;;;;;;11.82;3.42;;;25.60;99.90;;;;;;6170586;22;20013;-74
2022/07/27 12:04:29;;;;;;;9.48;3.10;;;25.70;99.90;;;;;;6190591;23;20095;-75
2022/07/27 12:06:58;;;;;;;10.82;3.30;;;25.80;99.90;;;;;;6179661;23;20032;-75
2022/07/27 12:09:25;;;;;;;11.43;3.47;;;25.70;99.90;;;;;;6151618;23;20124;-76
2022/07/27 12:11:55;;;;;;;10.10;2.80;;;25.70;99.90;;;;;;6130848;23;20009;-76
2022/07/27 12:14:34;;;;;;;8.07;2.90;;;25.70;99.90;;;;;;6151752;23;20040;-75
2022/07/27 12:17:32;;;;;;;11.23;3.00;;;25.60;99.90;;;;;;6179630;23;20019;-75
2022/07/27 12:20:04;;;;;;;12.90;3.33;;;25.40;99.90;;;;;;6143036;23;20017;-74
2022/07/27 12:22:44;;;;;;;7.43;3.00;;;25.50;99.90;;;;;;6178823;23;20091;-75
2022/07/27 12:25:18;;;;;;;8.68;3.10;;;25.50;99.90;;;;;;6180048;23;20464;-75
2022/07/27 12:27:57;;;;;;;10.10;3.08;;;25.50;99.90;;;;;;6180954;23;20024;-76
2022/07/27 12:30:39;;;;;;;11.02;3.33;;;25.50;99.90;;;;;;6131008;23;20154;-75
2022/07/27 12:33:34;;;;;;;15.00;3.30;;;25.70;99.90;;;;;;6180567;23;20013;-75
2022/07/27 12:36:02;;;;;;;10.27;3.05;;;25.70;99.90;;;;;;6182873;23;20020;-75
2022/07/27 12:38:42;;;;;;;11.52;3.45;;;25.60;99.90;;;;;;6155097;23;20143;-74
2022/07/27 12:41:08;;;;;;;9.13;2.92;;;25.60;99.90;;;;;;6180416;23;20016;-76
2022/07/27 12:43:33;;;;;;;11.73;2.95;;;25.90;99.90;;;;;;6154116;23;20017;-74
2022/07/27 12:46:11;;;;;;;11.35;3.17;;;25.70;99.90;;;;;;6180587;23;20115;-75
2022/07/27 12:48:38;;;;;;;10.02;3.00;;;25.60;99.90;;;;;;6167461;23;20023;-76